createdAt,value
2018-01-15T00:01:03.047Z,19.80
2018-01-15T00:03:31.205Z,18.12
2018-01-15T00:05:58.621Z,15.02
2018-01-15T00:08:26.131Z,14.87
2018-01-15T00:10:53.762Z,17.40
2018-01-15T00:13:21.210Z,19.75
2018-01-15T00:15:49.410Z,18.60
2018-01-15T00:18:16.989Z,22.13
2018-01-15T00:20:44.741Z,17.85
2018-01-15T00:23:12.389Z,14.82
2018-01-15T00:25:40.833Z,15.07
2018-01-15T00:28:08.237Z,16.00
2018-01-15T00:30:35.883Z,20.12
2018-01-15T00:33:03.314Z,16.25
2018-01-15T00:35:30.936Z,22.65
2018-01-15T00:37:58.561Z,19.08
2018-01-15T00:40:26.149Z,16.30
2018-01-15T00:42:53.618Z,21.48
2018-01-15T00:45:21.105Z,15.90
2018-01-15T00:47:48.866Z,19.37
2018-01-15T00:50:16.324Z,22.08
2018-01-15T00:52:43.932Z,24.35
2018-01-15T00:55:11.366Z,11.23
2018-01-15T00:57:39.769Z,16.60
2018-01-15T01:00:07.231Z,14.20
2018-01-15T01:02:34.813Z,22.65
2018-01-15T01:05:02.302Z,16.10
2018-01-15T01:07:29.764Z,25.80
2018-01-15T01:09:57.201Z,24.10
2018-01-15T01:12:24.636Z,12.93
2018-01-15T01:14:52.281Z,18.65
2018-01-15T01:17:19.768Z,23.12
2018-01-15T01:19:47.322Z,15.27
2018-01-15T01:22:14.954Z,15.98
2018-01-15T01:24:42.554Z,20.20
2018-01-15T01:27:10.305Z,21.52
2018-01-15T01:29:37.741Z,20.08
2018-01-15T01:32:05.234Z,12.68
2018-01-15T01:34:32.829Z,25.85
2018-01-15T01:37:00.710Z,17.45
2018-01-15T01:39:28.213Z,16.27
2018-01-15T01:41:55.981Z,13.27
2018-01-15T01:44:23.421Z,18.27
2018-01-15T01:46:50.898Z,16.92
2018-01-15T01:49:18.330Z,16.02
2018-01-15T01:51:45.772Z,12.93
2018-01-15T01:54:13.189Z,13.43
2018-01-15T01:56:40.722Z,16.17
2018-01-15T01:59:08.360Z,12.77
2018-01-15T02:01:35.898Z,17.30
2018-01-15T02:04:04.085Z,36.35
2018-01-15T02:06:32.109Z,18.62
2018-01-15T02:08:59.857Z,14.73
2018-01-15T02:11:27.317Z,17.62
2018-01-15T02:13:54.957Z,15.02
2018-01-15T02:16:22.387Z,18.05
2018-01-15T02:18:50.005Z,26.95
2018-01-15T02:21:17.460Z,22.42
2018-01-15T02:23:44.905Z,15.55
2018-01-15T02:26:12.371Z,25.20
2018-01-15T02:28:39.829Z,20.95
2018-01-15T02:31:07.291Z,30.10
2018-01-15T02:33:34.705Z,18.35
2018-01-15T02:36:02.142Z,18.33
2018-01-15T02:38:29.657Z,17.77
2018-01-15T02:40:57.081Z,21.30
2018-01-15T02:43:24.503Z,17.58
2018-01-15T02:45:52.397Z,23.05
2018-01-15T02:48:20.043Z,16.48
2018-01-15T02:50:47.497Z,16.65
2018-01-15T02:53:14.964Z,15.50
2018-01-15T02:55:42.488Z,16.45
2018-01-15T02:58:09.921Z,16.08
2018-01-15T03:00:37.416Z,17.20
2018-01-15T03:03:05.028Z,14.85
2018-01-15T03:05:32.534Z,12.07
2018-01-15T03:08:00.073Z,20.80
2018-01-15T03:10:27.525Z,17.60
2018-01-15T03:12:54.941Z,19.85
2018-01-15T03:15:22.378Z,21.98
2018-01-15T03:17:49.801Z,14.77
2018-01-15T03:20:17.227Z,24.02
2018-01-15T03:22:44.662Z,15.93
2018-01-15T03:25:12.281Z,15.35
2018-01-15T03:27:39.719Z,17.73
2018-01-15T03:30:07.169Z,14.15
2018-01-15T03:32:34.582Z,19.65
2018-01-15T03:35:02.034Z,19.12
2018-01-15T03:37:29.566Z,17.65
2018-01-15T03:39:57.206Z,13.77
2018-01-15T03:42:24.679Z,15.45
2018-01-15T03:44:52.241Z,19.73
2018-01-15T03:47:19.709Z,19.35
2018-01-15T03:49:47.133Z,17.65
2018-01-15T03:52:14.625Z,21.52
2018-01-15T03:54:42.278Z,19.27
2018-01-15T03:57:09.851Z,14.98
2018-01-15T03:59:37.309Z,18.10
2018-01-15T04:02:04.757Z,17.92
2018-01-15T04:04:32.526Z,13.20
2018-01-15T04:07:00.298Z,16.83
2018-01-15T04:09:27.763Z,18.67
2018-01-15T04:11:55.217Z,15.25
2018-01-15T04:14:23.060Z,20.33
2018-01-15T04:16:50.737Z,21.98
2018-01-15T04:19:18.174Z,21.87
2018-01-15T04:21:45.601Z,24.30
2018-01-15T04:24:13.785Z,17.20
2018-01-15T04:26:41.499Z,17.25
2018-01-15T04:29:08.926Z,20.73
2018-01-15T04:31:36.353Z,20.30
2018-01-15T04:34:03.777Z,16.67
2018-01-15T04:36:31.221Z,27.17
2018-01-15T04:38:58.682Z,19.12
2018-01-15T04:41:26.844Z,21.60
2018-01-15T04:43:54.282Z,15.10
2018-01-15T04:46:21.885Z,16.60
2018-01-15T04:48:49.425Z,16.15
2018-01-15T04:51:16.886Z,18.12
2018-01-15T04:53:44.441Z,17.67
2018-01-15T04:56:12.087Z,28.23
2018-01-15T04:58:39.670Z,29.92
2018-01-15T05:01:07.438Z,16.85
2018-01-15T05:03:34.985Z,13.73
2018-01-15T05:06:02.413Z,20.98
2018-01-15T05:08:30.018Z,17.17
2018-01-15T05:10:57.465Z,18.17
2018-01-15T05:13:24.968Z,16.10
2018-01-15T05:15:52.486Z,15.38
2018-01-15T05:18:20.130Z,16.25
2018-01-15T05:20:47.582Z,15.90
2018-01-15T05:23:15.065Z,23.52
2018-01-15T05:25:42.493Z,19.87
2018-01-15T05:28:10.131Z,21.77
2018-01-15T05:30:37.538Z,18.40
2018-01-15T05:33:04.969Z,21.60
2018-01-15T05:35:32.457Z,18.50
2018-01-15T05:38:00.089Z,18.40
2018-01-15T05:40:27.574Z,13.15
2018-01-15T05:42:55.005Z,21.02
2018-01-15T05:45:22.594Z,18.10
2018-01-15T05:47:50.356Z,17.40
2018-01-15T05:50:18.010Z,15.18
2018-01-15T05:52:45.574Z,20.60
2018-01-15T05:55:13.000Z,15.95
2018-01-15T05:57:40.421Z,12.25
2018-01-15T06:00:07.957Z,21.10
2018-01-15T06:02:35.591Z,18.60
2018-01-15T06:05:03.234Z,16.23
2018-01-15T06:07:30.829Z,21.00
2018-01-15T06:09:58.397Z,15.40
2018-01-15T06:12:25.829Z,16.58
2018-01-15T06:14:53.312Z,18.25
2018-01-15T06:17:20.689Z,14.13
2018-01-15T06:19:48.233Z,22.83
2018-01-15T06:22:15.996Z,15.55
2018-01-15T06:24:43.425Z,17.55
2018-01-15T06:27:10.865Z,16.58
2018-01-15T06:29:38.287Z,15.20
2018-01-15T06:32:05.725Z,17.87
2018-01-15T06:34:33.201Z,14.70
2018-01-15T06:37:00.688Z,16.65
2018-01-15T06:39:28.118Z,17.77
2018-01-15T06:41:55.669Z,18.50
2018-01-15T06:44:23.118Z,17.73
2018-01-15T06:46:50.581Z,16.65
2018-01-15T06:49:17.994Z,13.85
2018-01-15T06:51:45.475Z,19.58
2018-01-15T06:54:12.953Z,17.23
2018-01-15T06:56:40.405Z,15.18
2018-01-15T06:59:07.843Z,19.87
2018-01-15T07:01:35.274Z,16.52
2018-01-15T07:04:02.726Z,19.37
2018-01-15T07:06:30.164Z,17.15
2018-01-15T07:08:57.601Z,18.60
2018-01-15T07:11:25.054Z,15.38
2018-01-15T07:13:52.508Z,14.60
2018-01-15T07:16:19.946Z,24.15
2018-01-15T07:18:47.537Z,15.38
2018-01-15T07:21:14.961Z,18.33
2018-01-15T07:23:42.407Z,18.00
2018-01-15T07:26:09.834Z,16.60
2018-01-15T07:28:37.284Z,18.85
2018-01-15T07:31:04.823Z,26.90
2018-01-15T07:33:32.594Z,21.05
2018-01-15T07:36:00.015Z,13.27
2018-01-15T07:38:27.461Z,17.30
2018-01-15T07:40:54.964Z,20.15
2018-01-15T07:43:22.733Z,17.05
2018-01-15T07:45:50.492Z,21.80
2018-01-15T07:48:18.257Z,20.60
2018-01-15T07:50:46.005Z,24.95
2018-01-15T07:53:13.469Z,20.83
2018-01-15T07:55:40.936Z,27.40
2018-01-15T07:58:08.568Z,17.12
2018-01-15T08:00:36.061Z,21.65
2018-01-15T08:03:03.530Z,17.00
2018-01-15T08:05:31.068Z,15.82
2018-01-15T08:07:58.489Z,14.87
2018-01-15T08:10:25.919Z,22.85
2018-01-15T08:12:53.345Z,13.77
2018-01-15T08:15:20.903Z,19.67
2018-01-15T08:17:48.338Z,20.50
2018-01-15T08:20:15.797Z,18.75
2018-01-15T08:22:43.273Z,12.90
2018-01-15T08:25:10.737Z,23.30
2018-01-15T08:27:38.408Z,14.75
2018-01-15T08:30:05.870Z,18.50
2018-01-15T08:32:33.317Z,13.73
2018-01-15T08:35:00.875Z,14.68
2018-01-15T08:37:28.645Z,17.75
2018-01-15T08:39:56.190Z,15.90
2018-01-15T08:42:23.865Z,22.60
2018-01-15T08:44:51.321Z,20.37
2018-01-15T08:47:18.952Z,13.65
2018-01-15T08:49:46.429Z,16.25
2018-01-15T08:52:14.002Z,16.65
2018-01-15T08:54:41.767Z,15.18
2018-01-15T08:57:09.228Z,15.68
2018-01-15T08:59:36.666Z,19.23
2018-01-15T09:02:04.097Z,15.27
2018-01-15T09:04:31.602Z,18.85
2018-01-15T09:06:59.041Z,20.88
2018-01-15T09:09:26.470Z,18.20
2018-01-15T09:11:53.965Z,15.60
2018-01-15T09:14:21.414Z,19.25
2018-01-15T09:16:48.837Z,15.93
2018-01-15T09:19:16.340Z,12.73
2018-01-15T09:21:43.974Z,16.23
2018-01-15T09:24:11.565Z,13.52
2018-01-15T09:26:38.999Z,18.15
2018-01-15T09:29:06.485Z,13.90
2018-01-15T09:31:33.953Z,14.43
2018-01-15T09:34:01.398Z,14.95
2018-01-15T09:36:28.820Z,15.45
2018-01-15T09:38:56.313Z,24.90
2018-01-15T09:41:23.769Z,17.95
2018-01-15T09:43:51.528Z,17.62
2018-01-15T09:46:19.050Z,13.95
2018-01-15T09:48:46.664Z,12.95
2018-01-15T09:51:14.106Z,11.73
2018-01-15T09:53:41.627Z,17.30
2018-01-15T09:56:09.143Z,14.00
2018-01-15T09:58:36.576Z,27.90
2018-01-15T10:01:04.018Z,14.25
2018-01-15T10:03:31.505Z,16.95
2018-01-15T10:05:59.269Z,27.60
2018-01-15T10:08:26.903Z,21.00
2018-01-15T10:10:54.346Z,19.25
2018-01-15T10:13:22.741Z,12.65
2018-01-15T10:15:50.242Z,13.62
2018-01-15T10:18:17.667Z,16.83
2018-01-15T10:20:45.156Z,15.15
2018-01-15T10:23:12.586Z,22.00
2018-01-15T10:25:40.167Z,24.15
2018-01-15T10:28:07.607Z,18.23
2018-01-15T10:30:35.046Z,21.05
2018-01-15T10:33:02.528Z,16.73
2018-01-15T10:35:30.184Z,17.65
2018-01-15T10:37:57.657Z,14.38
2018-01-15T10:40:25.150Z,19.48
2018-01-15T10:42:53.594Z,14.95
2018-01-15T10:45:21.035Z,16.20
2018-01-15T10:47:48.462Z,16.83
2018-01-15T10:50:15.889Z,18.85
2018-01-15T10:52:43.325Z,11.18
2018-01-15T10:55:10.753Z,13.10
2018-01-15T10:57:39.160Z,19.27
2018-01-15T11:00:06.620Z,12.45
2018-01-15T11:02:34.046Z,11.82
2018-01-15T11:05:01.469Z,12.55
2018-01-15T11:07:29.005Z,13.35
2018-01-15T11:09:56.525Z,13.25
2018-01-15T11:12:23.962Z,13.68
2018-01-15T11:14:51.390Z,10.52
2018-01-15T11:17:18.885Z,12.02
2018-01-15T11:19:46.389Z,15.55
2018-01-15T11:22:13.822Z,11.77
2018-01-15T11:24:41.248Z,7.40
2018-01-15T11:27:08.753Z,18.62
2018-01-15T11:29:36.176Z,11.95
2018-01-15T11:32:03.617Z,16.12
2018-01-15T11:34:31.125Z,8.48
2018-01-15T11:36:58.569Z,10.70
2018-01-15T11:39:26.041Z,12.40
2018-01-15T11:41:53.697Z,15.60
2018-01-15T11:44:21.138Z,9.93
2018-01-15T11:46:48.640Z,8.80
2018-01-15T11:49:16.091Z,11.35
2018-01-15T11:51:43.642Z,9.68
2018-01-15T11:54:11.066Z,17.30
2018-01-15T11:56:38.556Z,8.15
2018-01-15T11:59:06.045Z,9.32
2018-01-15T12:01:33.782Z,11.93
2018-01-15T12:04:01.430Z,10.88
2018-01-15T12:06:29.005Z,12.40
2018-01-15T12:08:56.537Z,10.70
2018-01-15T12:11:24.134Z,12.73
2018-01-15T12:13:51.707Z,11.98
2018-01-15T12:16:19.138Z,23.38
2018-01-15T12:18:46.594Z,11.82
2018-01-15T12:21:14.025Z,8.77
2018-01-15T12:23:41.517Z,8.98
2018-01-15T12:26:09.277Z,12.68
2018-01-15T12:28:36.738Z,7.22
2018-01-15T12:31:04.194Z,11.98
2018-01-15T12:33:31.624Z,9.45
2018-01-15T12:35:59.058Z,13.60
2018-01-15T12:38:26.541Z,9.15
2018-01-15T12:40:54.845Z,8.68
2018-01-15T12:43:22.400Z,25.30
2018-01-15T12:45:50.043Z,13.70
2018-01-15T12:48:17.541Z,11.68
2018-01-15T12:50:44.985Z,9.68
2018-01-15T12:53:12.541Z,14.27
2018-01-15T12:55:40.178Z,8.45
2018-01-15T12:58:07.713Z,8.88
2018-01-15T13:00:35.138Z,16.45
2018-01-15T13:03:02.690Z,11.40
2018-01-15T13:05:42.126Z,12.65
2018-01-15T13:08:12.638Z,13.32
2018-01-15T13:10:40.111Z,10.13
2018-01-15T13:13:07.566Z,11.07
2018-01-15T13:15:35.200Z,16.37
2018-01-15T13:18:02.789Z,18.42
2018-01-15T13:20:30.441Z,14.70
2018-01-15T13:22:58.010Z,14.32
2018-01-15T13:25:25.785Z,14.35
2018-01-15T13:27:53.205Z,13.75
2018-01-15T13:30:20.654Z,14.55
2018-01-15T13:32:48.155Z,13.05
2018-01-15T13:35:15.616Z,9.50
2018-01-15T13:37:43.041Z,13.90
2018-01-15T13:40:10.489Z,11.00
2018-01-15T13:42:37.921Z,12.07
2018-01-15T13:45:05.352Z,17.65
2018-01-15T13:47:32.772Z,11.85
2018-01-15T13:50:00.224Z,11.52
2018-01-15T13:52:27.728Z,15.20
2018-01-15T13:54:55.161Z,12.68
2018-01-15T13:57:22.732Z,12.52
2018-01-15T13:59:50.494Z,10.90
2018-01-15T14:02:17.943Z,13.23
2018-01-15T14:04:45.409Z,11.00
2018-01-15T14:07:13.072Z,12.25
2018-01-15T14:09:40.529Z,9.32
2018-01-15T14:12:07.997Z,13.55
2018-01-15T14:14:35.542Z,12.02
2018-01-15T14:17:02.989Z,14.20
2018-01-15T14:19:30.408Z,10.65
2018-01-15T14:21:57.840Z,10.65
2018-01-15T14:24:25.262Z,10.45
2018-01-15T14:26:52.753Z,8.88
2018-01-15T14:29:20.299Z,12.18
2018-01-15T14:31:48.066Z,18.83
2018-01-15T14:34:15.712Z,18.12
2018-01-15T14:36:43.173Z,11.85
2018-01-15T14:39:10.762Z,11.40
2018-01-15T14:41:38.174Z,10.23
2018-01-15T14:44:05.618Z,13.43
2018-01-15T14:46:33.108Z,11.18
2018-01-15T14:49:00.573Z,14.43
2018-01-15T14:51:28.025Z,9.05
2018-01-15T14:53:55.665Z,19.83
2018-01-15T14:56:23.090Z,11.25
2018-01-15T14:58:50.598Z,9.50
2018-01-15T15:01:18.070Z,8.20
2018-01-15T15:03:45.573Z,10.98
2018-01-15T15:06:13.086Z,9.70
2018-01-15T15:08:40.734Z,7.12
2018-01-15T15:11:08.303Z,19.40
2018-01-15T15:13:35.770Z,8.13
2018-01-15T15:16:03.198Z,9.10
2018-01-15T15:18:30.681Z,5.55
2018-01-15T15:20:58.346Z,14.73
2018-01-15T15:23:25.788Z,7.75
2018-01-15T15:25:53.236Z,9.05
2018-01-15T15:28:20.817Z,6.03
2018-01-15T15:30:48.238Z,13.43
2018-01-15T15:33:15.677Z,6.90
2018-01-15T15:35:43.134Z,7.30
2018-01-15T15:38:10.566Z,6.78
2018-01-15T15:40:38.109Z,6.70
2018-01-15T15:43:05.549Z,6.25
2018-01-15T15:45:33.035Z,7.90
2018-01-15T15:48:00.481Z,10.57
2018-01-15T15:50:27.977Z,6.62
2018-01-15T15:52:55.589Z,11.23
2018-01-15T15:55:23.156Z,7.35
2018-01-15T15:57:50.614Z,7.70
2018-01-15T16:00:18.046Z,6.30
2018-01-15T16:02:45.466Z,5.15
2018-01-15T16:05:12.981Z,6.10
2018-01-15T16:07:40.402Z,5.80
2018-01-15T16:10:08.585Z,4.45
2018-01-15T16:12:36.189Z,8.82
2018-01-15T16:15:03.653Z,5.30
2018-01-15T16:17:31.068Z,4.47
2018-01-15T16:19:58.656Z,4.55
2018-01-15T16:22:31.961Z,5.05
2018-01-15T16:24:59.717Z,6.60
2018-01-15T16:27:27.362Z,5.12
2018-01-15T16:29:54.829Z,4.78
2018-01-15T16:32:22.244Z,5.85
2018-01-15T16:34:50.473Z,4.70
2018-01-15T16:37:18.241Z,6.30
2018-01-15T16:39:45.681Z,6.00
2018-01-15T16:42:13.096Z,4.18
2018-01-15T16:44:41.306Z,5.28
2018-01-15T16:47:08.989Z,4.25
2018-01-15T16:49:36.477Z,4.28
2018-01-15T16:52:03.901Z,8.07
2018-01-15T16:54:31.385Z,4.00
2018-01-15T16:56:58.820Z,4.40
2018-01-15T16:59:26.274Z,3.78
2018-01-15T17:01:53.693Z,6.10
2018-01-15T17:04:22.240Z,7.57
2018-01-15T17:06:49.749Z,3.65
2018-01-15T17:09:17.253Z,5.80
2018-01-15T17:11:44.673Z,4.12
2018-01-15T17:14:12.169Z,6.78
2018-01-15T17:16:39.721Z,4.70
2018-01-15T17:19:07.367Z,4.78
2018-01-15T17:21:34.812Z,3.75
2018-01-15T17:24:02.244Z,5.05
2018-01-15T17:26:30.470Z,3.37
2018-01-15T17:28:58.228Z,2.45
2018-01-15T17:31:25.688Z,3.12
2018-01-15T17:33:53.161Z,5.15
2018-01-15T17:36:20.792Z,5.22
2018-01-15T17:38:48.225Z,3.70
2018-01-15T17:41:16.473Z,3.60
2018-01-15T17:43:44.078Z,3.90
2018-01-15T17:46:11.669Z,3.90
2018-01-15T17:48:39.089Z,6.15
2018-01-15T17:51:06.585Z,8.80
2018-01-15T17:53:34.221Z,3.50
2018-01-15T17:56:01.637Z,5.40
2018-01-15T17:58:29.265Z,4.00
2018-01-15T18:00:56.927Z,3.12
2018-01-15T18:03:24.390Z,4.37
2018-01-15T18:05:51.825Z,3.58
2018-01-15T18:08:19.313Z,2.58
2018-01-15T18:10:46.861Z,3.45
2018-01-15T18:13:14.490Z,5.30
2018-01-15T18:15:41.939Z,3.83
2018-01-15T18:18:10.154Z,4.00
2018-01-15T18:20:37.925Z,4.65
2018-01-15T18:23:05.689Z,2.72
2018-01-15T18:25:33.454Z,6.72
2018-01-15T18:28:01.217Z,3.00
2018-01-15T18:30:28.764Z,4.68
2018-01-15T18:32:56.315Z,2.97
2018-01-15T18:35:23.753Z,2.28
2018-01-15T18:37:52.166Z,4.37
2018-01-15T18:40:19.730Z,3.65
2018-01-15T18:42:47.161Z,2.87
2018-01-15T18:45:14.600Z,3.08
2018-01-15T18:47:42.105Z,2.60
2018-01-15T18:50:09.565Z,6.65
2018-01-15T18:52:36.986Z,4.03
2018-01-15T18:55:04.418Z,5.07
2018-01-15T18:57:32.840Z,4.72
2018-01-15T19:00:00.321Z,2.45
2018-01-15T19:02:27.763Z,2.08
2018-01-15T19:04:55.184Z,3.03
2018-01-15T19:07:22.614Z,3.22
2018-01-15T19:09:50.054Z,1.75
2018-01-15T19:12:17.490Z,6.78
2018-01-15T19:14:45.069Z,1.52
2018-01-15T19:17:12.512Z,1.80
2018-01-15T19:19:39.929Z,2.20
2018-01-15T19:22:07.375Z,1.70
2018-01-15T19:24:34.901Z,1.85
2018-01-15T19:27:02.548Z,3.60
2018-01-15T19:29:30.021Z,1.83
2018-01-15T19:31:57.481Z,1.20
2018-01-15T19:34:40.736Z,1.05
2018-01-15T19:37:08.158Z,0.70
2018-01-15T19:39:35.593Z,1.20
2018-01-15T19:42:13.626Z,10.07
2018-01-15T19:44:46.757Z,1.48
2018-01-15T19:47:20.743Z,1.98
2018-01-15T19:49:54.121Z,0.70
2018-01-15T19:52:27.307Z,0.60
2018-01-15T19:55:00.918Z,1.35
2018-01-15T19:57:34.013Z,0.90
2018-01-15T20:00:07.269Z,3.05
2018-01-15T20:02:52.385Z,3.90
2018-01-15T20:05:25.432Z,1.25
2018-01-15T20:07:58.544Z,1.25
2018-01-15T20:10:31.843Z,2.00
2018-01-15T20:12:59.282Z,0.75
2018-01-15T20:15:26.716Z,0.85
2018-01-15T20:17:54.737Z,0.80
2018-01-15T20:20:22.156Z,0.70
2018-01-15T20:22:49.595Z,0.80
2018-01-15T20:25:17.013Z,0.80
2018-01-15T20:27:44.463Z,0.70
2018-01-15T20:30:11.881Z,1.33
2018-01-15T20:32:39.411Z,0.80
2018-01-15T20:35:06.949Z,16.95
2018-01-15T20:37:34.704Z,1.05
2018-01-15T20:40:02.131Z,0.60
2018-01-15T20:42:29.669Z,1.27
2018-01-15T20:44:57.081Z,1.10
2018-01-15T20:47:24.519Z,0.60
2018-01-15T20:49:51.946Z,1.00
2018-01-15T20:52:19.772Z,0.60
2018-01-15T20:54:47.197Z,1.00
2018-01-15T20:57:14.618Z,0.90
2018-01-15T20:59:42.944Z,0.80
2018-01-15T21:02:10.506Z,0.93
2018-01-15T21:04:37.957Z,1.62
2018-01-15T21:07:05.352Z,1.33
2018-01-15T21:09:32.800Z,0.95
2018-01-15T21:12:00.213Z,1.42
2018-01-15T21:14:27.658Z,1.10
2018-01-15T21:16:56.053Z,3.42
2018-01-15T21:19:23.504Z,1.95
2018-01-15T21:21:51.096Z,1.20
2018-01-15T21:24:18.754Z,5.10
2018-01-15T21:26:46.237Z,1.10
2018-01-15T21:29:13.778Z,1.20
2018-01-15T21:31:41.210Z,0.88
2018-01-15T21:34:08.653Z,2.75
2018-01-15T21:36:36.078Z,2.45
2018-01-15T21:39:03.517Z,2.28
2018-01-15T21:41:30.969Z,2.17
2018-01-15T21:43:58.495Z,3.28
2018-01-15T21:46:25.981Z,2.42
2018-01-15T21:48:53.441Z,5.80
2018-01-15T21:51:20.893Z,4.25
2018-01-15T21:53:48.329Z,3.70
2018-01-15T21:56:15.753Z,5.72
2018-01-15T21:58:43.268Z,8.32
2018-01-15T22:01:10.747Z,6.37
2018-01-15T22:03:38.298Z,3.40
2018-01-15T22:06:05.722Z,6.97
2018-01-15T22:08:33.313Z,6.95
2018-01-15T22:11:00.769Z,10.02
2018-01-15T22:13:28.221Z,5.68
2018-01-15T22:15:55.641Z,5.97
2018-01-15T22:18:23.858Z,9.82
2018-01-15T22:20:51.299Z,10.57
2018-01-15T22:23:18.769Z,7.82
2018-01-15T22:25:46.865Z,7.47
2018-01-15T22:28:14.475Z,6.82
2018-01-15T22:30:41.939Z,6.57
2018-01-15T22:33:09.410Z,7.68
2018-01-15T22:35:36.977Z,9.57
2018-01-15T22:38:04.397Z,8.82
2018-01-15T22:40:31.833Z,6.03
2018-01-15T22:42:59.249Z,5.18
2018-01-15T22:45:26.808Z,5.87
2018-01-15T22:47:54.237Z,5.62
2018-01-15T22:50:21.730Z,4.90
2018-01-15T22:52:49.412Z,6.70
2018-01-15T22:55:16.843Z,4.80
2018-01-15T22:57:44.413Z,4.40
2018-01-15T23:00:11.845Z,4.90
2018-01-15T23:02:39.325Z,4.55
2018-01-15T23:05:06.770Z,7.47
2018-01-15T23:07:34.231Z,5.57
2018-01-15T23:10:01.703Z,4.50
2018-01-15T23:12:29.353Z,4.40
2018-01-15T23:14:56.925Z,10.27
2018-01-15T23:17:24.441Z,4.15
2018-01-15T23:19:52.045Z,4.93
2018-01-15T23:22:19.473Z,9.02
2018-01-15T23:24:47.068Z,11.55
2018-01-15T23:27:14.490Z,5.35
2018-01-15T23:29:41.916Z,7.03
2018-01-15T23:32:09.432Z,10.68
2018-01-15T23:34:36.852Z,12.25
2018-01-15T23:37:04.288Z,6.00
2018-01-15T23:39:31.710Z,6.87
2018-01-15T23:41:59.185Z,7.93
2018-01-15T23:44:26.625Z,9.90
2018-01-15T23:46:54.077Z,9.93
2018-01-15T23:49:21.541Z,10.65
2018-01-15T23:51:48.984Z,5.78
2018-01-15T23:54:28.234Z,15.82
2018-01-15T23:56:55.880Z,9.05
2018-01-15T23:59:23.293Z,4.87
